Time;durP1;ratioP1;P1;durP2;ratioP2;P2;SDS_P1;SDS_P2;PMS_P1;PMS_P2;Temp;Humidity;BMP_temperature;BMP_pressure;BME280_temperature;BME280_humidity;BME280_pressure;Samples;Min_cycle;Max_cycle;Signal;HPM_P1;HPM_P2
2022/08/22 00:00:35;;;;;;;6.60;4.40;;;;;;;15.61;73.19;100885.67;106347;1275;72949;-84
2022/08/22 00:03:22;;;;;;;7.70;4.80;;;;;;;15.57;73.43;100884.66;106381;1276;62300;-85
2022/08/22 00:06:02;;;;;;;8.00;4.40;;;;;;;15.53;73.67;100885.88;106172;1275;60412;-84
2022/08/22 00:08:38;;;;;;;8.20;4.50;;;;;;;15.49;74.06;100883.98;106272;1275;72815;-84
2022/08/22 00:11:32;;;;;;;5.70;4.60;;;;;;;15.47;74.08;100891.70;106592;1275;71408;-84
2022/08/22 00:14:12;;;;;;;7.50;4.60;;;;;;;15.46;74.50;100894.61;106342;1275;73656;-84
2022/08/22 00:17:16;;;;;;;7.20;4.60;;;;;;;15.43;74.81;100893.51;106398;1276;61307;-84
2022/08/22 00:19:50;;;;;;;9.10;4.90;;;;;;;15.42;74.99;100896.05;106303;1275;60336;-84
2022/08/22 00:22:55;;;;;;;7.90;4.90;;;;;;;15.37;75.32;100894.48;106526;1276;74152;-84
2022/08/22 00:25:39;;;;;;;7.50;4.80;;;;;;;15.33;75.66;100895.04;105668;1279;73802;-85
2022/08/22 00:28:15;;;;;;;7.50;4.90;;;;;;;15.30;75.96;100899.71;106061;1276;73306;-84
2022/08/22 00:30:49;;;;;;;5.70;4.80;;;;;;;15.26;76.40;100899.91;106341;1276;62851;-84
2022/08/22 00:33:31;;;;;;;10.20;5.30;;;;;;;15.22;76.57;100899.70;106957;1276;60940;-84
2022/08/22 00:36:30;;;;;;;6.70;5.10;;;;;;;15.19;76.73;100899.39;106218;1276;75717;-84
2022/08/22 00:39:24;;;;;;;7.90;5.20;;;;;;;15.15;76.90;100901.12;106792;1275;72706;-84
2022/08/22 00:41:56;;;;;;;8.30;5.00;;;;;;;15.13;76.98;100895.66;106277;1276;74208;-84
2022/08/22 00:44:39;;;;;;;7.70;5.40;;;;;;;15.10;77.16;100897.30;106565;1276;61319;-84
2022/08/22 00:47:19;;;;;;;8.90;5.60;;;;;;;15.06;77.15;100896.34;106700;1276;60497;-84
2022/08/22 00:49:57;;;;;;;5.70;5.10;;;;;;;15.03;77.31;100898.42;106237;1276;74219;-85
2022/08/22 00:52:34;;;;;;;8.80;5.30;;;;;;;15.00;77.69;100898.50;106120;1276;71390;-84
2022/08/22 00:55:33;;;;;;;7.10;5.00;;;;;;;14.96;77.89;100899.14;105791;1276;76028;-86
2022/08/22 00:58:13;;;;;;;6.60;4.90;;;;;;;14.93;77.86;100896.90;106167;1275;62347;-84
2022/08/22 01:00:58;;;;;;;7.20;5.10;;;;;;;14.90;78.21;100899.39;106143;1274;60970;-84
2022/08/22 01:03:54;;;;;;;7.90;5.70;;;;;;;14.86;78.39;100899.84;106034;1276;74513;-85
2022/08/22 01:06:47;;;;;;;7.30;5.30;;;;;;;14.83;78.55;100895.84;106103;1276;72166;-86
2022/08/22 01:09:23;;;;;;;8.70;5.30;;;;;;;14.80;78.79;100899.27;105894;1276;73409;-85
2022/08/22 01:11:59;;;;;;;8.60;5.30;;;;;;;14.76;79.13;100896.08;106510;1276;62677;-86
2022/08/22 01:14:41;;;;;;;9.70;5.50;;;;;;;14.72;79.55;100898.73;105596;1276;60576;-85
2022/08/22 01:17:26;;;;;;;9.30;5.60;;;;;;;14.70;79.44;100896.17;106354;1275;74223;-85
2022/08/22 01:20:41;;;;;;;7.60;5.60;;;;;;;14.67;79.67;100893.70;105776;1275;71832;-85
2022/08/22 01:23:18;;;;;;;8.90;5.50;;;;;;;14.65;79.56;100894.96;105901;1276;74226;-85
2022/08/22 01:26:23;;;;;;;7.20;5.30;;;;;;;14.63;79.75;100896.42;105445;1277;62794;-84
2022/08/22 01:29:32;;;;;;;7.30;5.30;;;;;;;14.61;79.83;100898.46;105732;1275;60625;-84
2022/08/22 01:32:26;;;;;;;9.10;5.70;;;;;;;14.58;79.99;100896.92;106218;1276;74244;-85
2022/08/22 01:35:02;;;;;;;7.40;5.30;;;;;;;14.53;80.38;100896.54;105745;1276;72337;-85
2022/08/22 01:38:11;;;;;;;7.90;5.50;;;;;;;14.49;80.52;100893.59;106025;1276;72859;-85
2022/08/22 01:41:17;;;;;;;7.70;5.70;;;;;;;14.45;80.51;100892.09;106692;1275;62032;-85
2022/08/22 01:44:15;;;;;;;7.90;5.80;;;;;;;14.42;80.45;100890.31;106083;1276;61603;-85
2022/08/22 01:46:51;;;;;;;6.20;5.30;;;;;;;14.41;80.93;100891.87;106445;1276;74114;-85
2022/08/22 01:49:33;;;;;;;8.20;5.70;;;;;;;14.40;80.90;100889.56;105541;1276;71494;-84
2022/08/22 01:52:05;;;;;;;8.30;5.80;;;;;;;14.38;81.17;100889.59;105795;1276;74007;-85
2022/08/22 01:55:13;;;;;;;8.70;5.40;;;;;;;14.37;81.16;100889.09;105665;1276;61891;-84
2022/08/22 01:57:54;;;;;;;8.40;5.90;;;;;;;14.34;81.23;100888.86;105643;1276;60689;-83
2022/08/22 02:00:26;;;;;;;8.90;5.80;;;;;;;14.33;81.23;100887.66;106593;1276;73968;-85
2022/08/22 02:03:21;;;;;;;7.10;5.80;;;;;;;14.30;81.41;100881.52;105913;1276;71421;-85
2022/08/22 02:05:59;;;;;;;8.10;6.10;;;;;;;14.28;81.30;100884.67;105996;1276;73823;-85
2022/08/22 02:08:37;;;;;;;8.90;6.10;;;;;;;14.25;81.45;100883.77;106252;1275;62899;-85
2022/08/22 02:11:36;;;;;;;10.40;6.20;;;;;;;14.23;81.57;100883.35;105823;1276;61447;-85
2022/08/22 02:14:32;;;;;;;8.30;5.80;;;;;;;14.20;81.63;100878.37;106083;1274;74296;-85
2022/08/22 02:17:21;;;;;;;7.30;5.60;;;;;;;14.16;81.79;100879.53;105802;1276;72362;-86
2022/08/22 02:20:00;;;;;;;8.40;6.30;;;;;;;14.14;81.94;100879.11;106474;1276;73474;-84
2022/08/22 02:22:30;;;;;;;7.20;5.50;;;;;;;14.12;82.07;100877.82;105501;1276;63333;-85
2022/08/22 02:25:19;;;;;;;7.80;5.70;;;;;;;14.11;82.04;100881.17;105817;1276;60572;-85
2022/08/22 02:28:15;;;;;;;8.90;6.10;;;;;;;14.08;82.15;100882.39;106008;1276;75391;-85
2022/08/22 02:30:53;;;;;;;7.30;6.00;;;;;;;14.04;82.61;100884.16;105636;1277;71591;-85
2022/08/22 02:33:44;;;;;;;6.70;5.30;;;;;;;14.01;82.64;100883.11;106336;1275;74215;-84
2022/08/22 02:36:31;;;;;;;9.00;5.70;;;;;;;13.99;82.62;100886.91;106156;1276;62650;-85
2022/08/22 02:39:07;;;;;;;8.40;6.00;;;;;;;13.96;82.84;100885.83;106216;1274;61188;-85
2022/08/22 02:41:58;;;;;;;8.00;5.60;;;;;;;13.94;82.85;100887.06;105581;1276;76371;-85
2022/08/22 02:44:37;;;;;;;8.80;6.30;;;;;;;13.89;83.05;100889.20;105905;1275;70792;-87
2022/08/22 02:47:11;;;;;;;7.40;6.00;;;;;;;13.84;83.36;100890.48;105997;1276;72792;-85
2022/08/22 02:49:47;;;;;;;8.30;6.40;;;;;;;13.78;83.53;100890.88;105822;1279;62524;-85
2022/08/22 02:52:25;;;;;;;9.00;6.50;;;;;;;13.73;83.85;100894.06;106583;1275;61524;-85
2022/08/22 02:55:01;;;;;;;9.40;6.60;;;;;;;13.68;84.20;100893.64;106534;1274;74971;-84
2022/08/22 02:57:52;;;;;;;12.20;6.80;;;;;;;13.66;84.17;100892.64;106370;1276;71380;-85
2022/08/22 03:00:29;;;;;;;8.70;6.50;;;;;;;13.64;84.35;100891.20;105790;1275;73628;-86
2022/08/22 03:02:58;;;;;;;9.70;6.80;;;;;;;13.62;84.49;100893.23;106494;1275;63036;-85
2022/08/22 03:05:25;;;;;;;8.10;6.70;;;;;;;13.61;84.58;100894.08;105821;1275;61895;-85
2022/08/22 03:08:03;;;;;;;7.50;6.70;;;;;;;13.61;84.80;100895.01;106393;1274;75964;-85
2022/08/22 03:10:42;;;;;;;8.90;6.70;;;;;;;13.60;85.00;100890.16;105721;1276;71980;-85
2022/08/22 03:13:16;;;;;;;10.70;7.20;;;;;;;13.60;84.91;100890.36;106297;1276;72772;-85
2022/08/22 03:16:15;;;;;;;8.20;6.40;;;;;;;13.59;84.90;100892.38;105939;1276;62088;-85
2022/08/22 03:18:54;;;;;;;9.20;6.90;;;;;;;13.58;84.96;100894.82;105779;1276;61260;-84
2022/08/22 03:21:34;;;;;;;9.90;6.30;;;;;;;13.57;84.95;100895.10;106736;1276;74982;-85
2022/08/22 03:24:11;;;;;;;7.50;6.30;;;;;;;13.56;84.79;100892.79;105925;1276;73231;-85
2022/08/22 03:27:03;;;;;;;10.00;6.30;;;;;;;13.55;84.96;100892.17;106337;1276;72969;-86
2022/08/22 03:29:36;;;;;;;8.40;6.20;;;;;;;13.55;84.79;100892.08;106314;1275;62053;-85
2022/08/22 03:32:21;;;;;;;7.70;6.50;;;;;;;13.54;84.93;100889.86;106986;1276;61685;-85
2022/08/22 03:34:58;;;;;;;8.20;6.30;;;;;;;13.53;84.93;100892.89;105909;1276;75978;-85
2022/08/22 03:37:34;;;;;;;8.10;6.30;;;;;;;13.51;85.10;100894.97;106722;1276;73062;-85
2022/08/22 03:40:19;;;;;;;7.70;6.10;;;;;;;13.50;85.26;100893.21;105876;1277;74750;-85
2022/08/22 03:43:01;;;;;;;9.20;7.20;;;;;;;13.48;85.45;100892.21;106364;1276;62684;-84
2022/08/22 03:45:56;;;;;;;6.80;6.10;;;;;;;13.44;85.85;100891.77;106643;1274;61542;-84
2022/08/22 03:49:01;;;;;;;7.90;6.30;;;;;;;13.39;85.95;100891.61;106487;1275;76312;-85
2022/08/22 03:51:46;;;;;;;9.30;6.80;;;;;;;13.38;86.02;100891.70;106262;1278;71203;-85
2022/08/22 03:54:14;;;;;;;11.20;7.00;;;;;;;13.37;86.02;100892.80;106553;1276;74119;-85
2022/08/22 03:57:05;;;;;;;8.90;6.50;;;;;;;13.37;86.03;100895.11;106075;1275;62658;-85
2022/08/22 03:59:43;;;;;;;10.80;6.80;;;;;;;13.37;86.18;100897.89;106499;1276;61777;-85
2022/08/22 04:02:49;;;;;;;9.40;6.30;;;;;;;13.37;86.32;100896.99;106573;1276;74939;-85
2022/08/22 04:05:28;;;;;;;10.40;6.50;;;;;;;13.37;86.32;100897.23;106915;1276;72072;-85
2022/08/22 04:08:25;;;;;;;8.50;6.30;;;;;;;13.37;86.32;100898.45;105887;1276;72221;-85
2022/08/22 04:11:11;;;;;;;7.70;6.30;;;;;;;13.35;86.28;100897.04;106534;1274;62351;-86
2022/08/22 04:14:07;;;;;;;8.20;6.60;;;;;;;13.36;86.15;100899.34;106352;1276;61192;-85
2022/08/22 04:16:40;;;;;;;8.20;6.40;;;;;;;13.35;86.18;100906.89;107054;1275;75262;-85
2022/08/22 04:19:47;;;;;;;8.70;6.50;;;;;;;13.35;86.25;100907.29;106735;1276;74770;-85
2022/08/22 04:22:24;;;;;;;9.00;6.40;;;;;;;13.34;86.27;100910.05;106771;1276;72804;-85
2022/08/22 04:25:04;;;;;;;8.30;6.40;;;;;;;13.33;86.23;100907.89;106850;1276;63061;-85
2022/08/22 04:27:48;;;;;;;8.00;6.60;;;;;;;13.33;86.36;100908.05;106983;1276;61353;-85
2022/08/22 04:30:15;;;;;;;8.30;6.80;;;;;;;13.33;86.07;100905.75;105575;1276;76346;-85
2022/08/22 04:32:55;;;;;;;9.50;6.60;;;;;;;13.32;86.46;100906.60;106061;1276;71678;-85
2022/08/22 04:35:33;;;;;;;10.00;6.30;;;;;;;13.31;86.38;100910.23;105716;1276;72949;-84
2022/08/22 04:38:03;;;;;;;9.70;6.70;;;;;;;13.31;86.48;100912.54;106400;1275;62367;-85
2022/08/22 04:40:33;;;;;;;9.10;6.60;;;;;;;13.32;86.39;100911.48;105816;1276;61281;-86
2022/08/22 04:43:23;;;;;;;9.80;7.00;;;;;;;13.34;86.50;100914.48;105726;1275;75356;-83
2022/08/22 04:46:13;;;;;;;11.30;7.10;;;;;;;13.35;86.84;100914.31;106348;1276;70189;-86
2022/08/22 04:48:56;;;;;;;7.40;6.30;;;;;;;13.39;86.76;100918.36;105621;1276;71998;-85
2022/08/22 04:51:37;;;;;;;7.00;5.70;;;;;;;13.41;86.76;100919.66;106250;1276;63279;-85
2022/08/22 04:54:24;;;;;;;8.20;6.20;;;;;;;13.44;86.54;100921.17;106358;1276;61135;-86
2022/08/22 04:57:06;;;;;;;6.80;5.90;;;;;;;13.49;86.50;100924.63;106485;1276;75691;-87
2022/08/22 04:59:34;;;;;;;8.40;5.80;;;;;;;13.53;86.52;100925.37;106592;1276;71558;-85
2022/08/22 05:02:07;;;;;;;10.50;6.20;;;;;;;13.56;86.42;100926.42;106659;1276;72367;-83
2022/08/22 05:04:39;;;;;;;9.50;6.10;;;;;;;13.58;86.41;100924.84;105649;1277;62487;-87
2022/08/22 05:07:13;;;;;;;9.20;6.20;;;;;;;13.61;86.18;100928.02;105989;1276;61287;-85
2022/08/22 05:09:51;;;;;;;7.50;5.70;;;;;;;13.64;86.26;100931.88;106459;1277;74654;-85
2022/08/22 05:12:29;;;;;;;14.60;11.70;;;;;;;13.69;86.24;100933.48;106816;1277;72417;-85
2022/08/22 05:15:26;;;;;;;171.80;137.00;;;;;;;13.76;86.65;100938.85;106496;1276;72381;-86
2022/08/22 05:17:57;;;;;;;35.90;25.20;;;;;;;13.86;87.06;100947.88;106276;1276;62804;-86
2022/08/22 05:20:27;;;;;;;9.60;7.00;;;;;;;14.04;88.02;100952.09;106408;1275;61252;-86
2022/08/22 05:23:02;;;;;;;10.60;6.30;;;;;;;14.19;87.24;100951.27;105635;1276;75143;-85
2022/08/22 05:25:37;;;;;;;11.90;6.10;;;;;;;14.32;86.38;100952.70;105826;1276;71925;-88
2022/08/22 05:28:16;;;;;;;21.30;7.20;;;;;;;14.42;85.89;100951.28;106897;1276;72027;-86
2022/08/22 05:30:47;;;;;;;31.60;21.00;;;;;;;14.55;86.17;100952.13;106128;1277;61549;-86
2022/08/22 05:33:27;;;;;;;27.60;13.20;;;;;;;14.69;86.38;100952.81;106091;1276;61192;-87
2022/08/22 05:36:02;;;;;;;16.20;8.00;;;;;;;14.86;86.04;100954.44;106717;1276;75505;-86
2022/08/22 05:38:39;;;;;;;16.00;8.90;;;;;;;15.00;85.60;100949.34;106065;1276;72478;-85
2022/08/22 05:41:15;;;;;;;221.10;195.40;;;;;;;15.17;85.48;100952.30;105912;1276;72988;-85
2022/08/22 05:43:44;;;;;;;16.40;6.90;;;;;;;15.34;84.98;100950.56;105935;1277;61931;-85
2022/08/22 05:46:20;;;;;;;14.30;6.30;;;;;;;15.46;84.33;100950.39;106236;1276;61677;-86
2022/08/22 05:48:59;;;;;;;15.70;7.00;;;;;;;15.60;84.23;100946.23;106360;1276;75076;-86
2022/08/22 05:52:04;;;;;;;15.10;6.10;;;;;;;15.76;83.68;100950.49;106641;1276;70569;-86
2022/08/22 05:55:05;;;;;;;18.30;6.20;;;;;;;15.92;82.83;100948.30;106692;1276;72356;-87
2022/08/22 05:57:39;;;;;;;14.30;5.60;;;;;;;16.06;82.41;100951.13;106897;1276;61422;-87
2022/08/22 06:00:13;;;;;;;10.60;5.20;;;;;;;16.19;81.83;100946.67;106887;1276;61177;-86
2022/08/22 06:03:19;;;;;;;14.30;5.50;;;;;;;16.31;81.50;100949.11;106578;1278;74399;-87
2022/08/22 06:05:51;;;;;;;11.90;4.90;;;;;;;16.46;80.76;100948.31;105645;1277;72367;-85
2022/08/22 06:08:25;;;;;;;11.30;4.90;;;;;;;16.58;80.03;100950.20;106617;1276;73334;-85
2022/08/22 06:10:55;;;;;;;10.90;4.90;;;;;;;16.68;79.77;100951.20;106948;1274;61590;-85
2022/08/22 06:13:34;;;;;;;12.20;5.00;;;;;;;16.81;79.26;100954.29;106296;1276;61698;-85
2022/08/22 06:16:58;;;;;;;11.20;4.30;;;;;;;16.95;78.78;100951.55;106124;1276;74477;-84
2022/08/22 06:19:26;;;;;;;10.20;5.00;;;;;;;17.07;77.68;100952.70;106605;1277;72257;-83
2022/08/22 06:21:54;;;;;;;7.00;4.10;;;;;;;17.21;77.51;100954.91;106179;1276;72907;-83
2022/08/22 06:24:26;;;;;;;10.20;3.90;;;;;;;17.38;77.05;100955.92;106130;1277;61042;-84
2022/08/22 06:27:01;;;;;;;9.70;4.30;;;;;;;17.48;76.18;100958.21;106035;1276;61248;-84
2022/08/22 06:29:47;;;;;;;10.20;4.10;;;;;;;17.57;75.65;100967.48;106992;1275;75469;-84
2022/08/22 06:32:21;;;;;;;11.40;3.80;;;;;;;17.69;75.04;100968.42;106037;1277;72254;-83
2022/08/22 06:35:27;;;;;;;10.60;3.60;;;;;;;17.80;74.33;100966.95;106498;1277;75691;-83
2022/08/22 06:37:58;;;;;;;7.40;3.50;;;;;;;17.91;74.08;100968.48;106917;1276;62716;-83
2022/08/22 06:40:27;;;;;;;7.30;3.30;;;;;;;17.99;73.49;100967.02;106280;1275;61304;-84
2022/08/22 06:42:56;;;;;;;9.50;4.00;;;;;;;18.08;73.70;100966.55;106919;1265;74916;-83
2022/08/22 06:45:31;;;;;;;11.00;3.70;;;;;;;18.17;73.26;100971.23;107792;1277;71955;-84
2022/08/22 06:48:06;;;;;;;8.70;4.70;;;;;;;18.24;73.07;100966.30;106420;1276;73602;-84
2022/08/22 06:50:40;;;;;;;7.70;3.80;;;;;;;18.34;72.97;100964.15;106060;1277;61957;-84
2022/08/22 06:53:16;;;;;;;6.80;3.50;;;;;;;18.43;72.84;100965.73;106041;1277;61071;-83
2022/08/22 06:55:47;;;;;;;6.60;3.30;;;;;;;18.48;72.31;100962.66;105919;1276;74080;-85
2022/08/22 06:58:30;;;;;;;7.10;3.70;;;;;;;18.58;72.59;100963.93;106153;1276;71537;-84
2022/08/22 07:01:24;;;;;;;6.40;3.60;;;;;;;18.69;71.96;100967.02;106906;1276;73456;-84
2022/08/22 07:03:57;;;;;;;6.20;3.70;;;;;;;18.80;71.15;100968.58;106511;1277;63494;-84
2022/08/22 07:06:37;;;;;;;6.80;3.70;;;;;;;18.90;70.64;100965.84;105961;1277;61283;-84
2022/08/22 07:09:05;;;;;;;8.80;3.70;;;;;;;19.03;70.27;100964.13;106170;1276;75027;-84
2022/08/22 07:11:37;;;;;;;8.10;3.80;;;;;;;19.17;70.09;100966.10;106021;1277;71363;-84
2022/08/22 07:14:12;;;;;;;6.40;3.70;;;;;;;19.34;69.38;100966.83;106666;1277;72567;-84
2022/08/22 07:16:50;;;;;;;6.30;3.80;;;;;;;19.50;68.80;100970.66;107254;1277;61941;-85
2022/08/22 07:19:28;;;;;;;7.00;3.40;;;;;;;19.67;68.03;100971.56;106237;1277;61701;-83
2022/08/22 07:21:56;;;;;;;6.50;3.60;;;;;;;19.82;67.42;100972.02;106218;1277;73923;-83
2022/08/22 07:24:28;;;;;;;6.70;3.40;;;;;;;19.95;67.12;100973.60;106605;1274;71948;-84
2022/08/22 07:27:26;;;;;;;5.10;3.00;;;;;;;20.09;66.76;100974.11;106131;1276;72955;-83
2022/08/22 07:30:10;;;;;;;7.10;3.20;;;;;;;20.23;66.05;100973.39;106036;1272;63521;-84
2022/08/22 07:32:48;;;;;;;5.20;3.10;;;;;;;20.37;65.42;100973.33;106287;1276;61163;-83
2022/08/22 07:35:38;;;;;;;6.70;2.80;;;;;;;20.45;64.72;100970.56;106626;1277;75646;-83
2022/08/22 07:38:20;;;;;;;5.60;3.10;;;;;;;20.59;64.66;100970.09;107822;1274;71622;-82
2022/08/22 07:41:08;;;;;;;5.00;3.00;;;;;;;20.74;64.04;100974.61;107032;1277;74896;-83
2022/08/22 07:43:40;;;;;;;5.10;3.10;;;;;;;20.83;63.66;100975.33;106468;1275;62379;-84
2022/08/22 07:46:44;;;;;;;5.80;3.00;;;;;;;20.92;63.07;100974.00;107019;1277;60822;-83
2022/08/22 07:49:18;;;;;;;4.50;2.60;;;;;;;20.98;62.40;100984.08;106108;1277;73420;-82
2022/08/22 07:51:50;;;;;;;6.90;2.80;;;;;;;21.08;62.21;100978.90;106411;1277;71439;-83
2022/08/22 07:54:24;;;;;;;7.80;3.10;;;;;;;21.18;62.08;100977.85;107992;1276;73006;-83
2022/08/22 07:56:59;;;;;;;8.00;3.00;;;;;;;21.36;61.65;100983.23;107638;1277;61108;-83
2022/08/22 07:59:29;;;;;;;7.10;3.00;;;;;;;21.41;59.49;100986.34;105854;1277;1384241;-83
2022/08/22 08:02:03;;;;;;;6.00;3.00;;;;;;;21.48;59.86;100985.75;106423;1276;76226;-82
2022/08/22 08:04:33;;;;;;;5.60;3.00;;;;;;;21.61;59.40;100983.85;106784;1276;71543;-82
2022/08/22 08:07:09;;;;;;;6.90;3.30;;;;;;;21.72;58.64;100984.27;106516;1277;74133;-81
2022/08/22 08:09:43;;;;;;;13.40;8.40;;;;;;;21.82;58.06;100979.20;106178;1277;61690;-82
2022/08/22 08:12:13;;;;;;;7.30;3.70;;;;;;;21.91;57.95;100977.52;106754;1276;61124;-81
2022/08/22 08:14:43;;;;;;;4.90;3.30;;;;;;;22.03;57.90;100975.95;106781;1276;74919;-82
2022/08/22 08:17:23;;;;;;;23.80;16.40;;;;;;;22.18;57.37;100970.58;107001;1277;71394;-81
2022/08/22 08:19:54;;;;;;;16.50;12.40;;;;;;;22.30;56.68;100969.70;107842;1276;73029;-82
2022/08/22 08:22:25;;;;;;;38.20;31.20;;;;;;;22.39;56.14;100972.62;106454;1276;61352;-82
2022/08/22 08:24:56;;;;;;;13.40;9.40;;;;;;;22.49;56.08;100974.85;106509;1276;61292;-84
2022/08/22 08:30:23;;;;;;;7.00;3.60;;;;;;;22.79;55.14;100973.46;106537;1276;71305;-83
2022/08/22 08:32:56;;;;;;;8.30;4.90;;;;;;;22.92;55.17;100972.38;106164;1276;73832;-83
2022/08/22 08:35:51;;;;;;;8.90;4.50;;;;;;;23.13;54.75;100974.90;106447;1276;62424;-83
2022/08/22 08:38:47;;;;;;;6.10;3.30;;;;;;;23.36;53.78;100967.16;106373;1276;61101;-81
2022/08/22 08:41:43;;;;;;;5.10;3.00;;;;;;;23.48;52.61;100963.52;105928;1277;74931;-83
2022/08/22 08:44:25;;;;;;;7.20;2.90;;;;;;;23.68;53.13;100964.95;107037;1276;71655;-82
2022/08/22 08:47:10;;;;;;;4.90;2.60;;;;;;;23.84;51.81;100953.48;107159;1276;72692;-83
2022/08/22 08:50:06;;;;;;;7.60;2.70;;;;;;;23.93;51.72;100953.14;106575;1276;61613;-82
2022/08/22 08:52:57;;;;;;;3.80;2.20;;;;;;;24.15;51.95;100955.85;107039;1276;61462;-83
2022/08/22 08:55:27;;;;;;;4.50;2.60;;;;;;;24.23;50.38;100952.94;107060;1276;75298;-83
2022/08/22 08:58:31;;;;;;;5.40;1.80;;;;;;;24.34;50.77;100951.77;106699;1278;72591;-83
2022/08/22 09:01:19;;;;;;;3.30;1.70;;;;;;;24.50;50.05;100947.55;105586;1276;72391;-83
2022/08/22 09:03:53;;;;;;;4.50;2.30;;;;;;;24.65;49.14;100950.46;106807;1277;63350;-84
2022/08/22 09:07:02;;;;;;;5.00;2.10;;;;;;;24.78;48.81;100949.57;106062;1276;61832;-83
2022/08/22 09:09:39;;;;;;;8.20;2.00;;;;;;;24.95;47.77;100951.27;106476;1276;76446;-82
2022/08/22 09:12:25;;;;;;;4.50;2.00;;;;;;;25.05;47.17;100950.61;105804;1276;71443;-82
2022/08/22 09:15:01;;;;;;;5.30;1.80;;;;;;;25.12;46.70;100950.30;106079;1276;72847;-84
2022/08/22 09:17:37;;;;;;;7.50;2.20;;;;;;;25.22;46.48;100943.41;106154;1276;60797;-82
2022/08/22 09:20:49;;;;;;;4.30;1.70;;;;;;;25.34;46.18;100942.30;105738;1276;64502;-82
2022/08/22 09:23:30;;;;;;;4.10;1.90;;;;;;;25.49;46.66;100942.45;106727;1282;74946;-84
2022/08/22 09:26:55;;;;;;;4.50;1.80;;;;;;;25.65;45.86;100945.84;105050;1282;72133;-83
2022/08/22 09:29:33;;;;;;;9.70;1.80;;;;;;;25.82;45.22;100941.68;106026;1282;74348;-83
2022/08/22 09:32:49;;;;;;;6.40;1.70;;;;;;;25.97;45.39;100942.04;106985;1276;60233;-82
2022/08/22 09:35:40;;;;;;;5.00;1.70;;;;;;;26.13;44.75;100943.33;106297;1276;61431;-81
2022/08/22 09:38:26;;;;;;;5.10;1.50;;;;;;;26.25;43.77;100935.60;106712;1276;74842;-84
2022/08/22 09:41:34;;;;;;;6.70;1.70;;;;;;;26.36;42.93;100935.47;105796;1276;71455;-84
2022/08/22 09:44:23;;;;;;;5.50;1.70;;;;;;;26.52;43.36;100928.75;105643;1276;73013;-81
2022/08/22 09:47:12;;;;;;;6.40;1.70;;;;;;;26.66;42.60;100924.61;106231;1276;61215;-82
2022/08/22 09:49:50;;;;;;;5.00;1.50;;;;;;;26.79;42.33;100924.66;106224;1276;61489;-82
2022/08/22 09:52:23;;;;;;;6.30;2.10;;;;;;;26.89;40.59;100923.59;107285;1276;76046;-83
2022/08/22 09:55:11;;;;;;;5.70;1.80;;;;;;;26.98;40.34;100917.88;106228;1276;71460;-84
2022/08/22 09:58:06;;;;;;;4.40;1.60;;;;;;;27.09;40.09;100920.55;105929;1275;72912;-81
2022/08/22 10:00:39;;;;;;;3.90;1.50;;;;;;;27.27;40.17;100914.48;105799;1276;61778;-82
2022/08/22 10:03:17;;;;;;;3.80;1.40;;;;;;;27.36;37.56;100909.20;105792;1276;61765;-80
2022/08/22 10:05:53;;;;;;;4.00;1.50;;;;;;;27.32;37.08;100905.48;105974;1276;75581;-81
2022/08/22 10:08:39;;;;;;;2.60;1.20;;;;;;;27.33;36.73;100899.52;106124;1276;72648;-82
2022/08/22 10:11:34;;;;;;;4.30;1.20;;;;;;;27.44;37.36;100902.30;107404;1276;74005;-80
2022/08/22 10:14:22;;;;;;;4.50;1.50;;;;;;;27.57;36.07;100901.42;106625;1276;61617;-80
2022/08/22 10:17:21;;;;;;;4.30;1.80;;;;;;;27.62;36.48;100900.30;106160;1276;61289;-80
2022/08/22 10:20:26;;;;;;;4.20;1.50;;;;;;;27.80;37.30;100898.38;105911;1276;75319;-81
2022/08/22 10:23:11;;;;;;;2.70;0.90;;;;;;;27.98;36.07;100894.97;105916;1276;72092;-79
2022/08/22 10:25:42;;;;;;;3.10;1.10;;;;;;;28.00;34.84;100894.17;106561;1276;73807;-80
2022/08/22 10:28:32;;;;;;;4.90;1.10;;;;;;;27.93;34.36;100897.02;106486;1276;61488;-79
2022/08/22 10:31:01;;;;;;;3.70;1.10;;;;;;;27.95;34.93;100892.26;106385;1275;61879;-80
2022/08/22 10:33:51;;;;;;;3.80;1.20;;;;;;;27.96;34.29;100889.80;106386;1276;75947;-81
2022/08/22 10:37:00;;;;;;;4.10;1.40;;;;;;;28.03;34.31;100888.86;106258;1276;71566;-81
2022/08/22 10:39:37;;;;;;;4.00;1.70;;;;;;;28.15;34.56;100890.17;106393;1276;72979;-80
2022/08/22 10:43:00;;;;;;;4.30;1.50;;;;;;;28.29;33.94;100888.86;106568;1276;61388;-80
2022/08/22 10:45:39;;;;;;;4.00;1.10;;;;;;;28.48;34.50;100885.18;105788;1284;61234;-81
2022/08/22 10:48:34;;;;;;;4.50;1.20;;;;;;;28.68;33.79;100880.16;106479;1276;76024;-82
2022/08/22 10:51:45;;;;;;;3.40;1.10;;;;;;;28.83;33.02;100881.21;105361;1277;71148;-79
2022/08/22 10:54:16;;;;;;;4.70;1.30;;;;;;;28.94;32.47;100876.42;105904;1276;73332;-81
2022/08/22 10:56:51;;;;;;;4.50;1.30;;;;;;;29.07;32.02;100868.98;105846;1276;62461;-80
2022/08/22 10:59:35;;;;;;;3.80;1.20;;;;;;;29.26;32.73;100869.78;106705;1276;61184;-79
2022/08/22 11:02:23;;;;;;;3.10;1.20;;;;;;;29.40;31.27;100866.56;106183;1276;76210;-80
2022/08/22 11:05:09;;;;;;;2.60;0.90;;;;;;;29.55;31.33;100866.92;106417;1276;72479;-80
2022/08/22 11:07:53;;;;;;;3.60;1.00;;;;;;;29.61;30.40;100867.78;106569;1276;73011;-81
2022/08/22 11:10:37;;;;;;;3.70;1.10;;;;;;;29.64;30.28;100865.49;107065;1276;61192;-82
2022/08/22 11:13:48;;;;;;;6.20;1.30;;;;;;;29.72;30.45;100861.52;108183;1275;62550;-82
2022/08/22 11:16:40;;;;;;;4.70;1.20;;;;;;;29.94;30.86;100865.84;106663;1276;74741;-82
2022/08/22 11:19:21;;;;;;;3.20;1.10;;;;;;;30.11;30.62;100868.70;106403;1276;71149;-82
2022/08/22 11:22:06;;;;;;;3.40;1.40;;;;;;;30.31;29.99;100864.22;106298;1276;74191;-82
2022/08/22 11:25:03;;;;;;;3.70;1.20;;;;;;;30.56;29.68;100860.71;105900;1276;61394;-83
2022/08/22 11:27:46;;;;;;;3.20;1.00;;;;;;;30.78;28.94;100854.30;106025;1276;62009;-81
2022/08/22 11:30:17;;;;;;;2.00;1.10;;;;;;;30.85;28.53;100852.28;106132;1276;73262;-81
2022/08/22 11:33:09;;;;;;;3.10;0.90;;;;;;;30.96;29.15;100851.40;106500;1276;71432;-82
2022/08/22 11:35:49;;;;;;;5.00;1.30;;;;;;;31.13;28.88;100858.89;105750;1275;72889;-82
2022/08/22 11:38:34;;;;;;;3.20;1.00;;;;;;;31.28;28.54;100856.41;106652;1276;61681;-82
2022/08/22 11:41:23;;;;;;;2.40;1.10;;;;;;;31.43;28.49;100850.25;107135;1274;60009;-82
2022/08/22 11:44:00;;;;;;;3.10;1.10;;;;;;;31.58;27.92;100854.02;107177;1277;74792;-82
2022/08/22 11:46:34;;;;;;;3.60;1.10;;;;;;;31.61;27.78;100854.05;107218;1276;73100;-82
2022/08/22 11:49:22;;;;;;;3.70;1.10;;;;;;;31.51;26.86;100851.98;106597;1276;72942;-82
2022/08/22 11:51:56;;;;;;;2.80;1.00;;;;;;;31.44;27.36;100850.30;107212;1276;61138;-81
2022/08/22 11:54:49;;;;;;;2.40;1.10;;;;;;;31.61;27.51;100853.92;107123;1276;61280;-81
2022/08/22 11:57:38;;;;;;;3.60;1.10;;;;;;;31.82;25.41;100848.55;106215;1276;73700;-81
2022/08/22 12:00:28;;;;;;;4.80;1.20;;;;;;;31.82;26.22;100850.65;106320;1276;71347;-80
2022/08/22 12:02:55;;;;;;;2.30;0.90;;;;;;;31.70;25.95;100851.33;106096;1275;72041;-82
2022/08/22 12:05:31;;;;;;;4.00;1.10;;;;;;;31.96;26.57;100851.98;106430;1276;61889;-81
2022/08/22 12:08:11;;;;;;;4.70;1.20;;;;;;;32.31;24.94;100851.63;106334;1276;61179;-81
2022/08/22 12:11:34;;;;;;;3.80;1.40;;;;;;;32.89;25.55;100849.98;106233;1276;74987;-83
2022/08/22 12:14:06;;;;;;;2.30;1.00;;;;;;;33.67;24.14;100850.95;105539;1284;71469;-82
2022/08/22 12:16:45;;;;;;;3.60;1.10;;;;;;;34.12;23.63;100849.77;106457;1276;74047;-82
2022/08/22 12:19:35;;;;;;;3.80;1.30;;;;;;;34.15;22.66;100846.63;106008;1276;61168;-83
2022/08/22 12:22:45;;;;;;;2.40;0.90;;;;;;;33.99;21.90;100842.96;106185;1276;61327;-84
2022/08/22 12:25:27;;;;;;;2.10;0.80;;;;;;;34.02;22.13;100841.64;106567;1276;74799;-83
2022/08/22 12:28:25;;;;;;;2.50;0.90;;;;;;;33.86;22.05;100842.15;105915;1274;72498;-84
2022/08/22 12:31:11;;;;;;;4.80;1.10;;;;;;;33.89;22.91;100842.92;106598;1276;74525;-82